createdAt,value
2022-12-28T00:00:53.476Z,96511.84
2022-12-28T00:03:20.102Z,96515.69
2022-12-28T00:05:46.566Z,96511.19
2022-12-28T00:08:13.021Z,96506.75
2022-12-28T00:11:07.579Z,96501.47
2022-12-28T00:13:25.746Z,96497.19
2022-12-28T00:15:52.113Z,96492.94
2022-12-28T00:18:18.721Z,96485.38
2022-12-28T00:20:45.120Z,96495.69
2022-12-28T00:23:11.530Z,96488.13
2022-12-28T00:25:37.986Z,96486.56
2022-12-28T00:28:04.490Z,96484.91
2022-12-28T00:30:30.912Z,96479.44
2022-12-28T00:32:58.364Z,96480.75
2022-12-28T00:35:24.761Z,96480.97
2022-12-28T00:37:51.195Z,96480.19
2022-12-28T00:40:23.645Z,96485.31
2022-12-28T00:42:50.544Z,96479.53
2022-12-28T00:45:17.523Z,96481.34
2022-12-28T00:47:43.940Z,96482.00
2022-12-28T00:50:11.628Z,96486.31
2022-12-28T00:52:38.058Z,96482.88
2022-12-28T00:55:04.803Z,96484.00
2022-12-28T00:57:31.422Z,96477.53
2022-12-28T00:59:57.853Z,96477.63
2022-12-28T01:02:24.343Z,96481.06
2022-12-28T01:04:50.792Z,96479.28
2022-12-28T01:07:17.322Z,96470.63
2022-12-28T01:09:43.707Z,96466.56
2022-12-28T01:12:10.125Z,96471.84
2022-12-28T01:14:36.520Z,96466.69
2022-12-28T01:17:02.969Z,96461.53
2022-12-28T01:19:30.691Z,96462.47
2022-12-28T01:21:58.005Z,96456.38
2022-12-28T01:24:24.402Z,96466.69
2022-12-28T01:26:50.923Z,96459.84
2022-12-28T01:29:17.395Z,96451.34
2022-12-28T01:31:43.900Z,96457.34
2022-12-28T01:34:12.315Z,96448.69
2022-12-28T01:36:38.836Z,96438.41
2022-12-28T01:39:06.351Z,96430.59
2022-12-28T01:41:33.434Z,96435.50
2022-12-28T01:43:59.810Z,96420.22
2022-12-28T01:46:34.957Z,96422.84
2022-12-28T01:49:06.419Z,96424.34
2022-12-28T01:51:46.230Z,96407.16
2022-12-28T01:54:12.668Z,96405.63
2022-12-28T01:56:40.778Z,96398.75
2022-12-28T01:59:07.325Z,96401.09
2022-12-28T02:01:36.331Z,96390.75
2022-12-28T02:04:03.011Z,96384.72
2022-12-28T02:06:30.227Z,96381.22
2022-12-28T02:09:06.851Z,96374.59
2022-12-28T02:11:33.467Z,96361.88
2022-12-28T02:14:00.003Z,96360.22
2022-12-28T02:16:26.461Z,96357.59
2022-12-28T02:18:53.026Z,96364.44
2022-12-28T02:21:24.504Z,96370.47
2022-12-28T02:23:50.862Z,96365.31
2022-12-28T02:26:31.721Z,96373.06
2022-12-28T02:29:16.456Z,96368.78
2022-12-28T02:31:56.345Z,96359.34
2022-12-28T02:34:41.806Z,96353.41
2022-12-28T02:37:27.119Z,96346.56
2022-12-28T02:40:07.373Z,96347.41
2022-12-28T02:42:37.840Z,96358.53
2022-12-28T02:45:23.155Z,96356.84
2022-12-28T02:48:08.839Z,96351.72
2022-12-28T02:51:01.634Z,96330.25
2022-12-28T02:53:36.059Z,96334.53
2022-12-28T02:56:25.590Z,96332.81
2022-12-28T02:59:07.535Z,96321.69
2022-12-28T03:01:40.428Z,96324.28
2022-12-28T03:04:15.072Z,96315.69
2022-12-28T03:07:06.344Z,96309.69
2022-12-28T03:09:59.841Z,96307.97
2022-12-28T03:12:31.854Z,96313.97
2022-12-28T03:15:04.994Z,96307.13
2022-12-28T03:17:53.413Z,96302.84
2022-12-28T03:20:41.648Z,96300.28
2022-12-28T03:23:28.512Z,96291.69
2022-12-28T03:26:14.963Z,96289.06
2022-12-28T03:29:03.952Z,96285.66
2022-12-28T03:31:32.843Z,96289.94
2022-12-28T03:34:09.154Z,96296.81
2022-12-28T03:36:41.417Z,96288.22
2022-12-28T03:39:30.286Z,96286.50
2022-12-28T03:42:22.185Z,96279.63
2022-12-28T03:44:52.809Z,96276.19
2022-12-28T03:47:21.361Z,96267.59
2022-12-28T03:49:47.864Z,96269.31
2022-12-28T03:52:14.429Z,96258.16
2022-12-28T03:54:41.025Z,96261.59
2022-12-28T03:57:09.137Z,96259.03
2022-12-28T03:59:40.117Z,96258.13
2022-12-28T04:02:07.442Z,96267.59
2022-12-28T04:04:34.346Z,96265.91
2022-12-28T04:07:00.814Z,96258.16
2022-12-28T04:09:27.283Z,96262.41
2022-12-28T04:11:54.567Z,96257.28
2022-12-28T04:14:28.741Z,96252.97
2022-12-28T04:16:55.220Z,96242.66
2022-12-28T04:19:21.730Z,96239.25
2022-12-28T04:21:48.542Z,96233.19
2022-12-28T04:24:15.475Z,96239.19
2022-12-28T04:26:41.877Z,96223.75
2022-12-28T04:29:10.227Z,96219.41
2022-12-28T04:31:46.880Z,96210.78
2022-12-28T04:34:17.596Z,96213.34
2022-12-28T04:36:54.587Z,96217.66
2022-12-28T04:39:22.377Z,96216.75
2022-12-28T04:41:48.971Z,96221.03
2022-12-28T04:44:15.428Z,96212.47
2022-12-28T04:46:41.845Z,96214.16
2022-12-28T04:49:08.611Z,96219.25
2022-12-28T04:51:35.377Z,96221.88
2022-12-28T04:54:02.160Z,96221.03
2022-12-28T04:56:29.075Z,96221.88
2022-12-28T04:58:56.360Z,96228.69
2022-12-28T05:01:23.428Z,96231.28
2022-12-28T05:03:55.032Z,96228.63
2022-12-28T05:06:23.865Z,96226.97
2022-12-28T05:08:50.407Z,96224.28
2022-12-28T05:11:21.211Z,96226.97
2022-12-28T05:13:47.929Z,96209.88
2022-12-28T05:16:17.533Z,96213.22
2022-12-28T05:18:44.507Z,96219.25
2022-12-28T05:21:15.500Z,96221.88
2022-12-28T05:23:42.354Z,96221.00
2022-12-28T05:26:10.947Z,96216.69
2022-12-28T05:28:37.371Z,96209.81
2022-12-28T05:31:05.289Z,96209.78
2022-12-28T05:33:32.690Z,96221.81
2022-12-28T05:36:06.385Z,96216.69
2022-12-28T05:38:32.937Z,96220.97
2022-12-28T05:41:06.227Z,96226.19
2022-12-28T05:43:33.013Z,96226.16
2022-12-28T05:46:04.473Z,96233.84
2022-12-28T05:48:32.320Z,96230.47
2022-12-28T05:51:00.334Z,96229.63
2022-12-28T05:53:28.046Z,96230.44
2022-12-28T05:55:59.519Z,96220.06
2022-12-28T05:58:25.940Z,96222.66
2022-12-28T06:00:52.343Z,96229.59
2022-12-28T06:03:18.894Z,96222.78
2022-12-28T06:05:45.358Z,96217.63
2022-12-28T06:08:11.727Z,96217.59
2022-12-28T06:10:38.153Z,96207.25
2022-12-28T06:13:04.573Z,96208.16
2022-12-28T06:15:30.988Z,96204.66
2022-12-28T06:17:57.381Z,96207.16
2022-12-28T06:20:23.815Z,96197.69
2022-12-28T06:22:50.258Z,96198.53
2022-12-28T06:25:16.658Z,96192.53
2022-12-28T06:27:43.067Z,96186.53
2022-12-28T06:30:09.922Z,96186.50
2022-12-28T06:32:36.326Z,96187.34
2022-12-28T06:35:02.829Z,96185.66
2022-12-28T06:37:29.295Z,96183.09
2022-12-28T06:39:55.659Z,96171.94
2022-12-28T06:42:22.049Z,96167.72
2022-12-28T06:44:48.502Z,96158.28
2022-12-28T06:47:14.917Z,96160.88
2022-12-28T06:49:41.356Z,96174.63
2022-12-28T06:52:07.748Z,96159.13
2022-12-28T06:54:34.289Z,96167.72
2022-12-28T06:57:00.730Z,96168.59
2022-12-28T06:59:27.175Z,96178.91
2022-12-28T07:01:53.648Z,96178.88
2022-12-28T07:04:20.160Z,96179.72
2022-12-28T07:06:46.557Z,96180.59
2022-12-28T07:09:15.527Z,96179.75
2022-12-28T07:11:42.627Z,96177.19
2022-12-28T07:14:09.174Z,96174.53
2022-12-28T07:19:00.967Z,96160.09
2022-12-28T07:21:28.920Z,96156.72
2022-12-28T07:23:56.114Z,96154.97
2022-12-28T07:26:23.787Z,96150.69
2022-12-28T07:28:53.893Z,96153.16
2022-12-28T07:31:21.839Z,96148.88
2022-12-28T07:33:48.782Z,96149.81
2022-12-28T07:36:16.422Z,96143.84
2022-12-28T07:38:43.363Z,96142.09
2022-12-28T07:41:11.512Z,96144.66
2022-12-28T07:43:38.793Z,96142.78
2022-12-28T07:46:06.902Z,96143.66
2022-12-28T07:48:34.544Z,96145.34
2022-12-28T07:51:10.406Z,96143.56
2022-12-28T07:53:37.410Z,96136.69
2022-12-28T07:56:04.325Z,96130.56
2022-12-28T07:58:31.032Z,96134.75
2022-12-28T08:01:08.194Z,96121.91
2022-12-28T08:03:35.202Z,96123.56
2022-12-28T08:06:07.860Z,96114.97
2022-12-28T08:08:35.659Z,96120.09
2022-12-28T08:11:03.229Z,96114.94
2022-12-28T08:13:34.059Z,96116.66
2022-12-28T08:16:00.719Z,96115.06
2022-12-28T08:18:27.325Z,96117.47
2022-12-28T08:20:53.870Z,96117.53
2022-12-28T08:23:20.563Z,96120.94
2022-12-28T08:25:46.991Z,96120.81
2022-12-28T08:28:13.448Z,96113.81
2022-12-28T08:30:40.778Z,96116.56
2022-12-28T08:33:07.188Z,96117.44
2022-12-28T08:35:33.655Z,96120.84
2022-12-28T08:38:00.207Z,96106.19
2022-12-28T08:40:30.053Z,96115.47
2022-12-28T08:42:59.338Z,96114.69
2022-12-28T08:45:25.985Z,96116.28
2022-12-28T08:47:52.822Z,96117.25
2022-12-28T08:50:20.191Z,96118.91
2022-12-28T08:52:47.212Z,96104.25
2022-12-28T08:55:13.703Z,96104.19
2022-12-28T08:57:40.120Z,96111.94
2022-12-28T09:00:06.959Z,96115.31
2022-12-28T09:02:33.656Z,96117.00
2022-12-28T09:05:00.261Z,96109.16
2022-12-28T09:07:26.676Z,96110.81
2022-12-28T09:09:53.122Z,96111.63
2022-12-28T09:12:19.596Z,96113.53
2022-12-28T09:14:45.991Z,96109.13
2022-12-28T09:17:12.401Z,96114.84
2022-12-28T09:19:38.767Z,96122.59
2022-12-28T09:22:05.165Z,96116.78
2022-12-28T09:24:31.545Z,96123.44
2022-12-28T09:26:57.939Z,96117.50
2022-12-28T09:29:24.567Z,96111.38
2022-12-28T09:31:51.065Z,96118.81
2022-12-28T09:37:04.649Z,96126.47
2022-12-28T09:39:31.100Z,96113.50
2022-12-28T09:41:59.731Z,96117.00
2022-12-28T09:44:41.736Z,96105.81
2022-12-28T09:47:08.274Z,96101.53
2022-12-28T09:49:50.310Z,96094.66
2022-12-28T09:52:22.787Z,96103.34
2022-12-28T09:54:49.278Z,96097.09
2022-12-28T09:57:17.581Z,96094.34
2022-12-28T09:59:45.288Z,96092.63
2022-12-28T10:02:27.142Z,96091.75
2022-12-28T10:04:53.821Z,96086.34
2022-12-28T10:07:20.346Z,96088.84
2022-12-28T10:09:47.702Z,96074.22
2022-12-28T10:12:19.821Z,96077.44
2022-12-28T10:14:47.117Z,96084.63
2022-12-28T10:17:14.347Z,96080.50
2022-12-28T10:19:41.189Z,96075.34
2022-12-28T10:22:08.741Z,96070.94
2022-12-28T10:24:35.261Z,96073.50
2022-12-28T10:27:04.444Z,96064.06
2022-12-28T10:29:31.885Z,96063.97
2022-12-28T10:32:00.215Z,96064.00
2022-12-28T10:34:33.433Z,96056.94
2022-12-28T10:37:15.366Z,96056.78
2022-12-28T10:40:01.127Z,96062.03
2022-12-28T10:42:30.057Z,96055.38
2022-12-28T10:45:01.884Z,96049.41
2022-12-28T10:47:31.061Z,96049.56
2022-12-28T10:52:55.086Z,96032.66
2022-12-28T10:55:29.796Z,96035.97
2022-12-28T10:58:28.072Z,96036.91
2022-12-28T11:00:47.107Z,96032.50
2022-12-28T11:03:18.972Z,96026.56
2022-12-28T11:05:45.607Z,96028.31
2022-12-28T11:08:14.498Z,96020.47
2022-12-28T11:10:40.985Z,96018.22
2022-12-28T11:13:21.823Z,96009.13
2022-12-28T11:15:48.766Z,96009.06
2022-12-28T11:18:16.595Z,96007.16
2022-12-28T11:20:44.924Z,96002.84
2022-12-28T11:23:17.420Z,95996.19
2022-12-28T11:25:44.094Z,96001.78
2022-12-28T11:28:20.082Z,95996.22
2022-12-28T11:30:49.974Z,95995.69
2022-12-28T11:33:40.859Z,95986.94
2022-12-28T11:36:14.207Z,95986.25
2022-12-28T11:38:43.154Z,95975.88
2022-12-28T11:41:10.448Z,95970.97
2022-12-28T11:43:40.985Z,95968.13
2022-12-28T11:46:27.373Z,95965.63
2022-12-28T11:49:03.454Z,95966.50
2022-12-28T11:51:29.939Z,95962.19
2022-12-28T11:53:59.541Z,95961.09
2022-12-28T11:56:46.255Z,95955.25
2022-12-28T11:59:18.879Z,95947.28
2022-12-28T12:01:45.803Z,95955.34
2022-12-28T12:04:16.540Z,95943.25
2022-12-28T12:06:43.081Z,95929.75
2022-12-28T12:09:38.233Z,95935.84
2022-12-28T12:12:17.828Z,95929.47
2022-12-28T12:14:49.565Z,95922.81
2022-12-28T12:17:22.062Z,95927.00
2022-12-28T12:19:50.999Z,95923.31
2022-12-28T12:22:22.927Z,95916.44
2022-12-28T12:24:49.366Z,95924.25
2022-12-28T12:27:19.321Z,95913.34
2022-12-28T12:29:56.908Z,95917.88
2022-12-28T12:32:42.771Z,95913.97
2022-12-28T12:35:13.724Z,95912.69
2022-12-28T12:37:49.287Z,95900.47
2022-12-28T12:40:34.439Z,95905.41
2022-12-28T12:43:13.038Z,95896.16
2022-12-28T12:45:58.321Z,95884.78
2022-12-28T12:48:43.190Z,95884.06
2022-12-28T12:51:28.681Z,95879.44
2022-12-28T12:54:03.928Z,95879.31
2022-12-28T12:56:48.914Z,95873.66
2022-12-28T12:59:36.305Z,95872.81
2022-12-28T13:02:11.985Z,95866.66
2022-12-28T13:04:42.513Z,95855.56
2022-12-28T13:07:16.753Z,95858.13
2022-12-28T13:09:43.511Z,95857.38
2022-12-28T13:12:15.324Z,95849.59
2022-12-28T13:14:46.810Z,95852.28
2022-12-28T13:17:17.901Z,95850.84
2022-12-28T13:19:44.416Z,95849.25
2022-12-28T13:22:30.753Z,95849.28
2022-12-28T13:24:59.040Z,95837.03
2022-12-28T13:27:31.183Z,95833.63
2022-12-28T13:29:57.726Z,95829.09
2022-12-28T13:32:24.177Z,95824.97
2022-12-28T13:34:50.830Z,95822.13
2022-12-28T13:37:19.434Z,95823.13
2022-12-28T13:39:48.846Z,95814.94
2022-12-28T13:42:19.619Z,95809.75
2022-12-28T13:44:52.785Z,95809.41
2022-12-28T13:47:38.033Z,95816.41
2022-12-28T13:50:07.213Z,95806.16
2022-12-28T13:52:36.697Z,95809.81
2022-12-28T13:55:12.722Z,95803.63
2022-12-28T13:57:51.230Z,95805.44
2022-12-28T14:00:20.076Z,95802.84
2022-12-28T14:02:47.251Z,95804.72
2022-12-28T14:05:21.710Z,95807.25
2022-12-28T14:07:49.339Z,95816.06
2022-12-28T14:10:16.018Z,95808.41
2022-12-28T14:12:43.842Z,95810.94
2022-12-28T14:15:11.299Z,95815.81
2022-12-28T14:17:38.755Z,95809.25
2022-12-28T14:20:05.775Z,95801.34
2022-12-28T14:22:34.022Z,95797.94
2022-12-28T14:25:08.975Z,95788.50
2022-12-28T14:27:37.066Z,95789.22
2022-12-28T14:30:05.589Z,95782.50
2022-12-28T14:32:37.579Z,95785.97
2022-12-28T14:35:15.750Z,95787.84
2022-12-28T14:37:46.536Z,95775.03
2022-12-28T14:40:21.508Z,95777.78
2022-12-28T14:42:49.603Z,95774.09
2022-12-28T14:48:28.895Z,95766.44
2022-12-28T14:51:00.486Z,95773.31
2022-12-28T14:53:27.057Z,95773.13
2022-12-28T14:55:56.889Z,95769.84
2022-12-28T14:58:26.090Z,95764.72
2022-12-28T15:00:16.164Z,95769.69
2022-12-28T15:01:00.285Z,95768.03
2022-12-28T15:03:29.065Z,95764.78
2022-12-28T15:05:57.015Z,95763.00
2022-12-28T15:08:24.363Z,95760.31
2022-12-28T15:10:50.794Z,95765.22
2022-12-28T15:13:18.015Z,95756.56
2022-12-28T15:15:44.480Z,95751.50
2022-12-28T15:18:11.056Z,95759.34
2022-12-28T15:20:38.432Z,95761.53
2022-12-28T15:23:05.197Z,95766.09
2022-12-28T15:25:35.150Z,95755.47
2022-12-28T15:28:01.904Z,95755.97
2022-12-28T15:30:29.267Z,95750.53
2022-12-28T15:32:55.943Z,95751.28
2022-12-28T15:35:22.391Z,95747.50
2022-12-28T15:37:48.973Z,95752.16
2022-12-28T15:40:15.569Z,95753.19
2022-12-28T15:42:45.609Z,95748.06
2022-12-28T15:45:12.612Z,95742.78
2022-12-28T15:47:40.907Z,95742.50
2022-12-28T15:50:08.026Z,95742.91
2022-12-28T15:52:34.549Z,95740.28
2022-12-28T15:55:01.335Z,95740.03
2022-12-28T15:57:27.793Z,95729.16
2022-12-28T15:59:54.917Z,95725.34
2022-12-28T16:02:21.683Z,95728.00
2022-12-28T16:04:48.323Z,95723.25
2022-12-28T16:07:14.952Z,95726.34
2022-12-28T16:09:41.389Z,95721.06
2022-12-28T16:12:07.935Z,95716.75
2022-12-28T16:14:34.333Z,95722.09
2022-12-28T16:17:00.809Z,95723.75
2022-12-28T16:19:27.306Z,95710.94
2022-12-28T16:21:53.779Z,95714.03
2022-12-28T16:24:20.398Z,95711.78
2022-12-28T16:26:47.404Z,95706.38
2022-12-28T16:29:13.880Z,95706.13
2022-12-28T16:31:40.850Z,95709.56
2022-12-28T16:34:08.496Z,95702.00
2022-12-28T16:36:35.116Z,95703.00
2022-12-28T16:39:05.592Z,95704.78
2022-12-28T16:41:36.657Z,95700.91
2022-12-28T16:44:05.008Z,95695.66
2022-12-28T16:46:31.441Z,95700.41
2022-12-28T16:49:00.004Z,95695.69
2022-12-28T16:51:26.834Z,95698.84
2022-12-28T16:53:53.230Z,95683.38
2022-12-28T16:56:19.736Z,95687.44
2022-12-28T16:58:49.135Z,95681.50
2022-12-28T17:01:16.005Z,95680.13
2022-12-28T17:03:42.580Z,95679.66
2022-12-28T17:06:09.069Z,95669.75
2022-12-28T17:08:36.331Z,95674.78
2022-12-28T17:11:06.907Z,95677.94
2022-12-28T17:13:34.014Z,95679.75
2022-12-28T17:16:00.584Z,95675.13
2022-12-28T17:18:27.322Z,95670.09
2022-12-28T17:20:53.916Z,95664.97
2022-12-28T17:23:20.345Z,95668.47
2022-12-28T17:25:49.450Z,95665.59
2022-12-28T17:28:15.984Z,95666.94
2022-12-28T17:30:44.116Z,95665.00
2022-12-28T17:33:11.584Z,95660.59
2022-12-28T17:35:38.049Z,95657.69
2022-12-28T17:38:04.537Z,95655.81
2022-12-28T17:40:30.942Z,95651.81
2022-12-28T17:42:57.337Z,95653.16
2022-12-28T17:45:23.802Z,95653.34
2022-12-28T17:47:50.258Z,95651.00
2022-12-28T17:50:18.065Z,95648.56
2022-12-28T17:52:44.459Z,95645.81
2022-12-28T17:55:11.532Z,95642.16
2022-12-28T17:57:38.936Z,95641.56
2022-12-28T18:00:06.580Z,95634.00
2022-12-28T18:02:39.002Z,95627.78
2022-12-28T18:05:05.856Z,95622.06
2022-12-28T18:07:32.361Z,95619.47
2022-12-28T18:09:58.879Z,95617.88
2022-12-28T18:12:25.307Z,95613.38
2022-12-28T18:14:51.759Z,95607.75
2022-12-28T18:17:23.150Z,95598.09
2022-12-28T18:19:50.403Z,95611.81
2022-12-28T18:22:16.899Z,95595.22
2022-12-28T18:24:43.302Z,95603.53
2022-12-28T18:27:09.882Z,95602.56
2022-12-28T18:29:36.297Z,95591.13
2022-12-28T18:32:02.723Z,95580.38
2022-12-28T18:34:29.139Z,95584.06
2022-12-28T18:36:55.535Z,95589.72
2022-12-28T18:39:21.998Z,95583.84
2022-12-28T18:41:48.552Z,95580.22
2022-12-28T18:44:14.972Z,95584.06
2022-12-28T18:46:41.565Z,95581.13
2022-12-28T18:49:08.221Z,95574.00
2022-12-28T18:51:34.978Z,95578.25
2022-12-28T18:54:01.473Z,95572.47
2022-12-28T18:56:27.940Z,95578.34
2022-12-28T18:58:55.261Z,95574.25
2022-12-28T19:02:04.528Z,95567.28
2022-12-28T19:04:10.316Z,95563.53
2022-12-28T19:06:37.368Z,95553.66
2022-12-28T19:09:04.842Z,95551.38
2022-12-28T19:11:31.373Z,95555.22
2022-12-28T19:13:58.060Z,95544.41
2022-12-28T19:16:30.535Z,95543.59
2022-12-28T19:18:58.859Z,95536.31
2022-12-28T19:21:36.135Z,95534.59
2022-12-28T19:24:13.663Z,95535.25
2022-12-28T19:26:40.079Z,95527.66
2022-12-28T19:29:07.324Z,95530.13
2022-12-28T19:31:34.146Z,95522.97
2022-12-28T19:34:00.597Z,95514.25
2022-12-28T19:36:27.058Z,95515.00
2022-12-28T19:38:55.061Z,95508.13
2022-12-28T19:41:21.740Z,95508.13
2022-12-28T19:43:48.272Z,95504.25
2022-12-28T19:46:19.282Z,95505.03
2022-12-28T19:48:45.883Z,95514.00
2022-12-28T19:51:12.959Z,95499.28
2022-12-28T19:53:39.466Z,95505.03
2022-12-28T19:56:11.345Z,95507.94
2022-12-28T19:58:39.350Z,95505.09
2022-12-28T20:01:06.900Z,95505.44
2022-12-28T20:03:34.285Z,95507.06
2022-12-28T20:06:09.777Z,95501.97
2022-12-28T20:08:37.122Z,95506.25
2022-12-28T20:11:04.449Z,95495.69
2022-12-28T20:13:31.457Z,95513.88
2022-12-28T20:15:57.922Z,95505.22
2022-12-28T20:18:24.482Z,95513.28
2022-12-28T20:21:18.684Z,95513.91
2022-12-28T20:23:38.009Z,95513.34
2022-12-28T20:26:04.850Z,95504.47
2022-12-28T20:28:31.799Z,95506.50
2022-12-28T20:31:02.169Z,95505.44
2022-12-28T20:33:30.251Z,95508.72
2022-12-28T20:35:57.666Z,95501.06
2022-12-28T20:38:24.114Z,95500.38
2022-12-28T20:41:01.133Z,95502.84
2022-12-28T20:43:27.649Z,95501.34
2022-12-28T20:45:54.463Z,95489.75
2022-12-28T20:48:21.064Z,95488.44
2022-12-28T20:50:48.251Z,95486.41
2022-12-28T20:53:15.104Z,95487.59
2022-12-28T20:55:41.746Z,95481.34
2022-12-28T20:58:08.697Z,95490.03
2022-12-28T21:00:37.087Z,95482.13
2022-12-28T21:03:03.603Z,95488.81
2022-12-28T21:05:30.041Z,95489.25
2022-12-28T21:07:56.469Z,95491.72
2022-12-28T21:10:22.890Z,95493.56
2022-12-28T21:12:49.328Z,95491.00
2022-12-28T21:15:16.675Z,95481.34
2022-12-28T21:17:43.460Z,95485.75
2022-12-28T21:20:10.220Z,95488.22
2022-12-28T21:22:36.653Z,95490.59
2022-12-28T21:25:03.184Z,95489.44
2022-12-28T21:27:29.668Z,95481.84
2022-12-28T21:29:56.185Z,95478.50
2022-12-28T21:32:22.635Z,95476.47
2022-12-28T21:34:49.074Z,95474.31
2022-12-28T21:37:34.062Z,95468.81
2022-12-28T21:40:00.999Z,95465.84
2022-12-28T21:42:27.654Z,95472.03
2022-12-28T21:44:54.120Z,95464.59
2022-12-28T21:47:20.620Z,95463.09
2022-12-28T21:49:47.143Z,95462.25
2022-12-28T21:52:13.766Z,95462.19
2022-12-28T21:54:40.578Z,95463.22
2022-12-28T21:57:07.100Z,95458.16
2022-12-28T21:59:33.621Z,95464.50
2022-12-28T22:02:19.049Z,95460.91
2022-12-28T22:05:04.338Z,95464.41
2022-12-28T22:07:31.087Z,95456.38
2022-12-28T22:10:16.297Z,95455.38
2022-12-28T22:12:42.765Z,95458.78
2022-12-28T22:15:30.173Z,95465.44
2022-12-28T22:17:58.347Z,95462.09
2022-12-28T22:20:25.772Z,95458.38
2022-12-28T22:22:54.432Z,95457.47
2022-12-28T22:25:20.844Z,95452.22
2022-12-28T22:27:47.299Z,95453.94
2022-12-28T22:30:14.138Z,95451.88
2022-12-28T22:32:40.612Z,95446.59
2022-12-28T22:35:07.784Z,95454.94
2022-12-28T22:37:34.754Z,95449.56
2022-12-28T22:40:01.666Z,95446.88
2022-12-28T22:42:28.404Z,95438.47
2022-12-28T22:44:55.064Z,95435.56
2022-12-28T22:47:21.615Z,95438.97
2022-12-28T22:49:47.991Z,95443.44
2022-12-28T22:52:14.460Z,95437.25
2022-12-28T22:54:40.875Z,95434.53
2022-12-28T22:57:07.307Z,95427.25
2022-12-28T22:59:34.241Z,95429.41
2022-12-28T23:02:00.901Z,95416.63
2022-12-28T23:04:27.426Z,95423.75
2022-12-28T23:06:56.327Z,95424.00
2022-12-28T23:09:26.569Z,95416.63
2022-12-28T23:11:52.971Z,95409.09
2022-12-28T23:14:42.975Z,95416.59
2022-12-28T23:17:11.076Z,95416.22
2022-12-28T23:19:56.477Z,95396.47
2022-12-28T23:22:42.635Z,95387.81
2022-12-28T23:25:32.051Z,95392.56
2022-12-28T23:27:59.659Z,95383.66
2022-12-28T23:30:26.985Z,95385.69
2022-12-28T23:32:53.870Z,95381.00
2022-12-28T23:35:20.880Z,95376.97
2022-12-28T23:37:47.764Z,95383.38
2022-12-28T23:40:15.460Z,95368.59
2022-12-28T23:42:43.093Z,95365.41
2022-12-28T23:45:11.447Z,95370.31
2022-12-28T23:47:38.430Z,95361.94
2022-12-28T23:50:05.409Z,95357.31
2022-12-28T23:52:31.807Z,95355.25
2022-12-28T23:54:58.469Z,95357.91
2022-12-28T23:57:24.942Z,95364.63
2022-12-28T23:59:51.355Z,95367.16
